Curryville, Missouri
Current Conditions -  °F | °C
As of 10:15 AM on Wednesday 26 Nov 2014 (Local Time) from KPPQ Reporting Station
Broken Clouds Broken Clouds  
Wind Chill: 24°   Ceiling: 4300
Heat Index: 32°   Visibility: 10mi
Dew Point: 29°   Wind: 9mph
Humidity: 88%   Direction: 130°SE
Pressure: 30.03"   Gusts: NA
Location:  39.35°N, 91.34°W
Report Text: KPPQ 261615Z AUTO 13008KT 10SM SCT037 BKN043 BKN050 00/M02 A3003 RMK AO2 T00001018 PWINO
Loading
Personal Weather Stations






























Interactive Weather Map New forecast layout! Learn more

10-Day Weather Forecast

Advertisements
Track Severe Weather on mobile